Landrienne, Canada
Current Conditions -  °F | °C
As of 5:00 PM on Tuesday 21 Oct 2014 (Local Time) from CYVO Reporting Station
Few Clouds Few Clouds  
Wind Chill: 33°   Ceiling: Unl
Heat Index: 41°   Visibility: 15mi
Dew Point: 28°   Wind: 15mph
Humidity: 61%   Direction: 30°NNE
Pressure: 30.21"   Gusts: 22mph
Location:  48.55°N, 77.95°W
Report Text: CYVO 212100Z 03013G19KT 15SM FEW035 FEW240 05/M02 A3021 RMK SC1CI1 SC TR CI TR SLP249
Loading
Personal Weather Stations






























Interactive Weather Map
Tropical Storm Tracking
New forecast layout! Learn more

10-Day Weather Forecast

Advertisements
Track Severe Weather on mobile